sensor_id;sensor_type;location;lat;lon;timestamp;P1;durP1;ratioP1;P2;durP2;ratioP2
50379;SDS011;37474;59.468;18.040;2024-03-08T00:00:19;7.33;;;3.57;;
50379;SDS011;37474;59.468;18.040;2024-03-08T00:02:48;7.50;;;3.23;;
50379;SDS011;37474;59.468;18.040;2024-03-08T00:05:17;10.32;;;2.90;;
50379;SDS011;37474;59.468;18.040;2024-03-08T00:07:46;6.67;;;3.33;;
50379;SDS011;37474;59.468;18.040;2024-03-08T00:10:14;6.67;;;3.60;;
50379;SDS011;37474;59.468;18.040;2024-03-08T00:12:44;8.32;;;3.40;;
50379;SDS011;37474;59.468;18.040;2024-03-08T00:15:17;7.77;;;3.40;;
50379;SDS011;37474;59.468;18.040;2024-03-08T00:17:49;7.10;;;2.70;;
50379;SDS011;37474;59.468;18.040;2024-03-08T00:20:18;6.60;;;3.30;;
50379;SDS011;37474;59.468;18.040;2024-03-08T00:22:46;7.43;;;3.03;;
50379;SDS011;37474;59.468;18.040;2024-03-08T00:25:14;7.90;;;3.20;;
50379;SDS011;37474;59.468;18.040;2024-03-08T00:27:43;10.77;;;3.27;;
50379;SDS011;37474;59.468;18.040;2024-03-08T00:30:11;7.60;;;3.13;;
50379;SDS011;37474;59.468;18.040;2024-03-08T00:32:45;6.82;;;2.58;;
50379;SDS011;37474;59.468;18.040;2024-03-08T00:35:13;5.63;;;2.90;;
50379;SDS011;37474;59.468;18.040;2024-03-08T00:37:44;6.63;;;2.47;;
50379;SDS011;37474;59.468;18.040;2024-03-08T00:40:14;5.43;;;2.67;;
50379;SDS011;37474;59.468;18.040;2024-03-08T00:42:42;7.67;;;3.10;;
50379;SDS011;37474;59.468;18.040;2024-03-08T00:45:10;8.40;;;3.00;;
50379;SDS011;37474;59.468;18.040;2024-03-08T00:50:12;7.65;;;2.83;;
50379;SDS011;37474;59.468;18.040;2024-03-08T00:52:40;6.20;;;2.60;;
50379;SDS011;37474;59.468;18.040;2024-03-08T00:55:08;6.60;;;2.90;;
50379;SDS011;37474;59.468;18.040;2024-03-08T00:57:37;4.67;;;2.23;;
50379;SDS011;37474;59.468;18.040;2024-03-08T01:00:06;4.87;;;2.57;;
50379;SDS011;37474;59.468;18.040;2024-03-08T01:02:38;4.80;;;2.17;;
50379;SDS011;37474;59.468;18.040;2024-03-08T01:05:07;4.43;;;2.50;;
50379;SDS011;37474;59.468;18.040;2024-03-08T01:07:39;5.17;;;2.67;;
50379;SDS011;37474;59.468;18.040;2024-03-08T01:10:08;8.27;;;2.60;;
50379;SDS011;37474;59.468;18.040;2024-03-08T01:12:37;5.50;;;2.50;;
50379;SDS011;37474;59.468;18.040;2024-03-08T01:15:05;5.77;;;2.60;;
50379;SDS011;37474;59.468;18.040;2024-03-08T01:17:34;4.17;;;2.37;;
50379;SDS011;37474;59.468;18.040;2024-03-08T01:20:06;5.90;;;2.30;;
50379;SDS011;37474;59.468;18.040;2024-03-08T01:22:37;5.63;;;2.40;;
50379;SDS011;37474;59.468;18.040;2024-03-08T01:25:07;4.70;;;2.37;;
50379;SDS011;37474;59.468;18.040;2024-03-08T01:27:35;4.28;;;2.45;;
50379;SDS011;37474;59.468;18.040;2024-03-08T01:30:04;4.33;;;2.47;;
50379;SDS011;37474;59.468;18.040;2024-03-08T01:32:36;6.30;;;2.47;;
50379;SDS011;37474;59.468;18.040;2024-03-08T01:35:05;4.10;;;2.30;;
50379;SDS011;37474;59.468;18.040;2024-03-08T01:37:36;3.77;;;2.37;;
50379;SDS011;37474;59.468;18.040;2024-03-08T01:40:04;4.63;;;2.60;;
50379;SDS011;37474;59.468;18.040;2024-03-08T01:42:34;5.03;;;2.67;;
50379;SDS011;37474;59.468;18.040;2024-03-08T01:45:04;3.90;;;2.07;;
50379;SDS011;37474;59.468;18.040;2024-03-08T01:47:35;4.10;;;2.47;;
50379;SDS011;37474;59.468;18.040;2024-03-08T01:50:05;8.63;;;2.20;;
50379;SDS011;37474;59.468;18.040;2024-03-08T01:52:33;5.30;;;2.30;;
50379;SDS011;37474;59.468;18.040;2024-03-08T01:55:03;5.57;;;2.45;;
50379;SDS011;37474;59.468;18.040;2024-03-08T01:57:35;5.43;;;2.30;;
50379;SDS011;37474;59.468;18.040;2024-03-08T02:00:05;4.37;;;2.40;;
50379;SDS011;37474;59.468;18.040;2024-03-08T02:02:37;5.80;;;2.50;;
50379;SDS011;37474;59.468;18.040;2024-03-08T02:05:05;4.70;;;2.60;;
50379;SDS011;37474;59.468;18.040;2024-03-08T02:07:34;8.13;;;2.50;;
50379;SDS011;37474;59.468;18.040;2024-03-08T02:10:02;4.90;;;2.47;;
50379;SDS011;37474;59.468;18.040;2024-03-08T02:12:32;5.57;;;2.90;;
50379;SDS011;37474;59.468;18.040;2024-03-08T02:15:04;4.60;;;2.20;;
50379;SDS011;37474;59.468;18.040;2024-03-08T02:17:33;6.90;;;2.43;;
50379;SDS011;37474;59.468;18.040;2024-03-08T02:20:01;10.73;;;2.93;;
50379;SDS011;37474;59.468;18.040;2024-03-08T02:22:31;4.70;;;2.53;;
50379;SDS011;37474;59.468;18.040;2024-03-08T02:25:00;5.75;;;2.88;;
50379;SDS011;37474;59.468;18.040;2024-03-08T02:27:30;8.20;;;2.57;;
50379;SDS011;37474;59.468;18.040;2024-03-08T02:29:59;10.50;;;2.70;;
50379;SDS011;37474;59.468;18.040;2024-03-08T02:32:27;18.90;;;3.27;;
50379;SDS011;37474;59.468;18.040;2024-03-08T02:34:56;7.93;;;2.80;;
50379;SDS011;37474;59.468;18.040;2024-03-08T02:37:26;7.10;;;2.67;;
50379;SDS011;37474;59.468;18.040;2024-03-08T02:40:00;14.23;;;3.00;;
50379;SDS011;37474;59.468;18.040;2024-03-08T02:42:28;7.25;;;3.35;;
50379;SDS011;37474;59.468;18.040;2024-03-08T02:44:56;6.97;;;2.63;;
50379;SDS011;37474;59.468;18.040;2024-03-08T02:47:24;8.47;;;2.70;;
50379;SDS011;37474;59.468;18.040;2024-03-08T02:49:53;6.27;;;3.10;;
50379;SDS011;37474;59.468;18.040;2024-03-08T02:54:52;6.03;;;2.37;;
50379;SDS011;37474;59.468;18.040;2024-03-08T02:57:21;5.73;;;2.43;;
50379;SDS011;37474;59.468;18.040;2024-03-08T02:59:49;5.87;;;2.80;;
50379;SDS011;37474;59.468;18.040;2024-03-08T03:02:17;8.80;;;2.57;;
50379;SDS011;37474;59.468;18.040;2024-03-08T03:04:45;7.27;;;2.87;;
50379;SDS011;37474;59.468;18.040;2024-03-08T03:07:13;6.27;;;2.73;;
50379;SDS011;37474;59.468;18.040;2024-03-08T03:09:42;7.50;;;2.50;;
50379;SDS011;37474;59.468;18.040;2024-03-08T03:12:10;6.23;;;2.30;;
50379;SDS011;37474;59.468;18.040;2024-03-08T03:14:39;5.37;;;2.70;;
50379;SDS011;37474;59.468;18.040;2024-03-08T03:17:07;5.88;;;2.92;;
50379;SDS011;37474;59.468;18.040;2024-03-08T03:19:36;10.40;;;2.93;;
50379;SDS011;37474;59.468;18.040;2024-03-08T03:22:06;11.50;;;3.05;;
50379;SDS011;37474;59.468;18.040;2024-03-08T03:24:36;5.43;;;3.10;;
50379;SDS011;37474;59.468;18.040;2024-03-08T03:27:05;4.40;;;2.53;;
50379;SDS011;37474;59.468;18.040;2024-03-08T03:29:39;7.50;;;2.53;;
50379;SDS011;37474;59.468;18.040;2024-03-08T03:32:09;6.03;;;2.50;;
50379;SDS011;37474;59.468;18.040;2024-03-08T03:34:37;3.27;;;2.40;;
50379;SDS011;37474;59.468;18.040;2024-03-08T03:37:05;5.70;;;2.60;;
50379;SDS011;37474;59.468;18.040;2024-03-08T03:39:35;4.38;;;2.47;;
50379;SDS011;37474;59.468;18.040;2024-03-08T03:42:14;10.00;;;2.80;;
50379;SDS011;37474;59.468;18.040;2024-03-08T03:44:45;7.27;;;2.80;;
50379;SDS011;37474;59.468;18.040;2024-03-08T03:47:14;6.67;;;2.70;;
50379;SDS011;37474;59.468;18.040;2024-03-08T03:49:43;5.80;;;2.57;;
50379;SDS011;37474;59.468;18.040;2024-03-08T03:52:11;6.37;;;2.67;;
50379;SDS011;37474;59.468;18.040;2024-03-08T03:54:39;6.43;;;3.10;;
50379;SDS011;37474;59.468;18.040;2024-03-08T03:57:07;5.43;;;2.70;;
50379;SDS011;37474;59.468;18.040;2024-03-08T03:59:35;3.70;;;2.27;;
50379;SDS011;37474;59.468;18.040;2024-03-08T04:02:04;6.53;;;2.93;;
50379;SDS011;37474;59.468;18.040;2024-03-08T04:04:33;7.57;;;3.13;;
50379;SDS011;37474;59.468;18.040;2024-03-08T04:07:01;8.57;;;2.87;;
50379;SDS011;37474;59.468;18.040;2024-03-08T04:09:29;7.60;;;3.30;;
50379;SDS011;37474;59.468;18.040;2024-03-08T04:11:57;8.47;;;3.07;;
50379;SDS011;37474;59.468;18.040;2024-03-08T04:14:25;11.60;;;3.30;;
50379;SDS011;37474;59.468;18.040;2024-03-08T04:16:53;13.13;;;3.20;;
50379;SDS011;37474;59.468;18.040;2024-03-08T04:19:23;12.73;;;3.20;;
50379;SDS011;37474;59.468;18.040;2024-03-08T04:21:54;8.43;;;3.17;;
50379;SDS011;37474;59.468;18.040;2024-03-08T04:24:24;9.60;;;3.08;;
50379;SDS011;37474;59.468;18.040;2024-03-08T04:26:52;9.93;;;3.27;;
50379;SDS011;37474;59.468;18.040;2024-03-08T04:29:21;7.53;;;3.30;;
50379;SDS011;37474;59.468;18.040;2024-03-08T04:31:49;8.67;;;3.23;;
50379;SDS011;37474;59.468;18.040;2024-03-08T04:34:20;10.30;;;3.13;;
50379;SDS011;37474;59.468;18.040;2024-03-08T04:36:50;9.80;;;3.73;;
50379;SDS011;37474;59.468;18.040;2024-03-08T04:39:18;10.05;;;3.13;;
50379;SDS011;37474;59.468;18.040;2024-03-08T04:41:48;15.40;;;4.30;;
50379;SDS011;37474;59.468;18.040;2024-03-08T04:44:17;6.25;;;3.28;;
50379;SDS011;37474;59.468;18.040;2024-03-08T04:46:45;5.87;;;3.03;;
50379;SDS011;37474;59.468;18.040;2024-03-08T04:49:13;6.43;;;2.97;;
50379;SDS011;37474;59.468;18.040;2024-03-08T04:51:41;6.37;;;3.20;;
50379;SDS011;37474;59.468;18.040;2024-03-08T04:54:16;6.77;;;3.17;;
50379;SDS011;37474;59.468;18.040;2024-03-08T04:56:45;6.32;;;3.15;;
50379;SDS011;37474;59.468;18.040;2024-03-08T04:59:13;8.17;;;3.70;;
50379;SDS011;37474;59.468;18.040;2024-03-08T05:01:41;6.27;;;3.77;;
50379;SDS011;37474;59.468;18.040;2024-03-08T05:04:09;7.07;;;3.20;;
50379;SDS011;37474;59.468;18.040;2024-03-08T05:06:37;7.83;;;3.40;;
50379;SDS011;37474;59.468;18.040;2024-03-08T05:09:05;7.57;;;3.77;;
50379;SDS011;37474;59.468;18.040;2024-03-08T05:11:42;7.43;;;2.87;;
50379;SDS011;37474;59.468;18.040;2024-03-08T05:14:11;8.00;;;3.33;;
50379;SDS011;37474;59.468;18.040;2024-03-08T05:16:43;7.43;;;3.63;;
50379;SDS011;37474;59.468;18.040;2024-03-08T05:19:15;6.77;;;3.70;;
50379;SDS011;37474;59.468;18.040;2024-03-08T05:21:48;7.53;;;3.27;;
50379;SDS011;37474;59.468;18.040;2024-03-08T05:24:17;9.55;;;3.72;;
50379;SDS011;37474;59.468;18.040;2024-03-08T05:26:46;9.73;;;3.73;;
50379;SDS011;37474;59.468;18.040;2024-03-08T05:29:15;6.00;;;3.20;;
50379;SDS011;37474;59.468;18.040;2024-03-08T05:31:45;8.97;;;4.20;;
50379;SDS011;37474;59.468;18.040;2024-03-08T05:34:15;6.57;;;3.53;;
50379;SDS011;37474;59.468;18.040;2024-03-08T05:36:45;6.85;;;3.95;;
50379;SDS011;37474;59.468;18.040;2024-03-08T05:39:13;12.13;;;4.00;;
50379;SDS011;37474;59.468;18.040;2024-03-08T05:41:41;9.40;;;3.80;;
50379;SDS011;37474;59.468;18.040;2024-03-08T05:44:11;9.13;;;4.27;;
50379;SDS011;37474;59.468;18.040;2024-03-08T05:46:40;8.10;;;3.90;;
50379;SDS011;37474;59.468;18.040;2024-03-08T05:49:09;11.53;;;4.47;;
50379;SDS011;37474;59.468;18.040;2024-03-08T05:51:39;11.73;;;5.18;;
50379;SDS011;37474;59.468;18.040;2024-03-08T05:54:08;10.43;;;3.80;;
50379;SDS011;37474;59.468;18.040;2024-03-08T05:56:40;9.10;;;4.23;;
50379;SDS011;37474;59.468;18.040;2024-03-08T05:59:09;11.10;;;4.37;;
50379;SDS011;37474;59.468;18.040;2024-03-08T06:01:38;13.83;;;4.40;;
50379;SDS011;37474;59.468;18.040;2024-03-08T06:04:08;12.00;;;4.50;;
50379;SDS011;37474;59.468;18.040;2024-03-08T06:06:38;14.18;;;4.15;;
50379;SDS011;37474;59.468;18.040;2024-03-08T06:09:07;13.87;;;4.90;;
50379;SDS011;37474;59.468;18.040;2024-03-08T06:11:39;8.60;;;4.50;;
50379;SDS011;37474;59.468;18.040;2024-03-08T06:14:08;14.87;;;5.13;;
50379;SDS011;37474;59.468;18.040;2024-03-08T06:16:36;10.03;;;4.77;;
50379;SDS011;37474;59.468;18.040;2024-03-08T06:19:06;10.33;;;4.27;;
50379;SDS011;37474;59.468;18.040;2024-03-08T06:21:34;11.90;;;5.53;;
50379;SDS011;37474;59.468;18.040;2024-03-08T06:24:02;9.73;;;4.67;;
50379;SDS011;37474;59.468;18.040;2024-03-08T06:26:31;12.07;;;4.57;;
50379;SDS011;37474;59.468;18.040;2024-03-08T06:29:02;11.17;;;4.80;;
50379;SDS011;37474;59.468;18.040;2024-03-08T06:31:33;10.13;;;5.23;;
50379;SDS011;37474;59.468;18.040;2024-03-08T06:34:07;13.60;;;4.53;;
50379;SDS011;37474;59.468;18.040;2024-03-08T06:36:36;14.60;;;5.32;;
50379;SDS011;37474;59.468;18.040;2024-03-08T06:39:05;15.17;;;4.93;;
50379;SDS011;37474;59.468;18.040;2024-03-08T06:41:36;10.47;;;5.07;;
50379;SDS011;37474;59.468;18.040;2024-03-08T06:44:05;14.37;;;4.50;;
50379;SDS011;37474;59.468;18.040;2024-03-08T06:46:34;9.77;;;4.45;;
50379;SDS011;37474;59.468;18.040;2024-03-08T06:49:02;9.57;;;4.37;;
50379;SDS011;37474;59.468;18.040;2024-03-08T06:51:32;9.70;;;4.37;;
50379;SDS011;37474;59.468;18.040;2024-03-08T06:54:00;13.20;;;5.28;;
50379;SDS011;37474;59.468;18.040;2024-03-08T06:56:35;11.60;;;4.87;;
50379;SDS011;37474;59.468;18.040;2024-03-08T06:59:03;11.33;;;4.40;;
50379;SDS011;37474;59.468;18.040;2024-03-08T07:01:31;12.17;;;4.40;;
50379;SDS011;37474;59.468;18.040;2024-03-08T07:04:01;11.32;;;4.10;;
50379;SDS011;37474;59.468;18.040;2024-03-08T07:06:33;13.27;;;4.30;;
50379;SDS011;37474;59.468;18.040;2024-03-08T07:09:01;12.38;;;4.38;;
50379;SDS011;37474;59.468;18.040;2024-03-08T07:11:29;9.80;;;4.20;;
50379;SDS011;37474;59.468;18.040;2024-03-08T07:13:57;8.53;;;4.57;;
50379;SDS011;37474;59.468;18.040;2024-03-08T07:16:29;15.27;;;4.33;;
50379;SDS011;37474;59.468;18.040;2024-03-08T07:19:00;9.63;;;4.10;;
50379;SDS011;37474;59.468;18.040;2024-03-08T07:21:28;10.60;;;4.43;;
50379;SDS011;37474;59.468;18.040;2024-03-08T07:23:58;14.80;;;4.43;;
50379;SDS011;37474;59.468;18.040;2024-03-08T07:26:40;8.27;;;3.90;;
50379;SDS011;37474;59.468;18.040;2024-03-08T07:29:07;10.10;;;4.13;;
50379;SDS011;37474;59.468;18.040;2024-03-08T07:31:35;8.53;;;3.73;;
50379;SDS011;37474;59.468;18.040;2024-03-08T07:34:29;12.00;;;4.63;;
50379;SDS011;37474;59.468;18.040;2024-03-08T07:36:58;7.35;;;4.30;;
50379;SDS011;37474;59.468;18.040;2024-03-08T07:39:28;9.47;;;4.47;;
50379;SDS011;37474;59.468;18.040;2024-03-08T07:41:56;7.65;;;4.03;;
50379;SDS011;37474;59.468;18.040;2024-03-08T07:44:24;14.70;;;4.63;;
50379;SDS011;37474;59.468;18.040;2024-03-08T07:46:56;9.53;;;4.53;;
50379;SDS011;37474;59.468;18.040;2024-03-08T07:49:24;10.47;;;4.73;;
50379;SDS011;37474;59.468;18.040;2024-03-08T07:51:52;9.23;;;3.80;;
50379;SDS011;37474;59.468;18.040;2024-03-08T07:54:20;8.97;;;4.50;;
50379;SDS011;37474;59.468;18.040;2024-03-08T07:56:50;9.40;;;4.27;;
50379;SDS011;37474;59.468;18.040;2024-03-08T07:59:18;10.23;;;4.70;;
50379;SDS011;37474;59.468;18.040;2024-03-08T08:01:47;12.20;;;4.60;;
50379;SDS011;37474;59.468;18.040;2024-03-08T08:04:15;6.57;;;3.80;;
50379;SDS011;37474;59.468;18.040;2024-03-08T08:06:45;9.30;;;4.00;;
50379;SDS011;37474;59.468;18.040;2024-03-08T08:09:13;8.03;;;4.03;;
50379;SDS011;37474;59.468;18.040;2024-03-08T08:11:41;8.97;;;3.93;;
50379;SDS011;37474;59.468;18.040;2024-03-08T08:14:11;10.93;;;3.70;;
50379;SDS011;37474;59.468;18.040;2024-03-08T08:16:39;7.97;;;3.93;;
50379;SDS011;37474;59.468;18.040;2024-03-08T08:19:09;12.48;;;4.20;;
50379;SDS011;37474;59.468;18.040;2024-03-08T08:21:40;6.97;;;3.93;;
50379;SDS011;37474;59.468;18.040;2024-03-08T08:24:08;11.73;;;3.90;;
50379;SDS011;37474;59.468;18.040;2024-03-08T08:26:37;7.80;;;3.73;;
50379;SDS011;37474;59.468;18.040;2024-03-08T08:29:06;8.60;;;3.73;;
50379;SDS011;37474;59.468;18.040;2024-03-08T08:31:35;7.80;;;3.57;;
50379;SDS011;37474;59.468;18.040;2024-03-08T08:34:05;8.23;;;3.03;;
50379;SDS011;37474;59.468;18.040;2024-03-08T08:36:33;7.17;;;3.57;;
50379;SDS011;37474;59.468;18.040;2024-03-08T08:39:01;6.83;;;3.40;;
50379;SDS011;37474;59.468;18.040;2024-03-08T08:41:30;7.73;;;3.30;;
50379;SDS011;37474;59.468;18.040;2024-03-08T08:43:58;6.27;;;3.20;;
50379;SDS011;37474;59.468;18.040;2024-03-08T08:46:42;10.20;;;3.40;;
50379;SDS011;37474;59.468;18.040;2024-03-08T08:49:10;7.97;;;3.08;;
50379;SDS011;37474;59.468;18.040;2024-03-08T08:51:41;8.73;;;4.03;;
50379;SDS011;37474;59.468;18.040;2024-03-08T08:54:09;7.37;;;3.17;;
50379;SDS011;37474;59.468;18.040;2024-03-08T08:56:40;7.03;;;3.00;;
50379;SDS011;37474;59.468;18.040;2024-03-08T08:59:11;6.07;;;3.07;;
50379;SDS011;37474;59.468;18.040;2024-03-08T09:01:40;6.73;;;3.10;;
50379;SDS011;37474;59.468;18.040;2024-03-08T09:04:10;6.93;;;3.23;;
50379;SDS011;37474;59.468;18.040;2024-03-08T09:06:38;6.55;;;2.92;;
50379;SDS011;37474;59.468;18.040;2024-03-08T09:09:09;7.13;;;3.10;;
50379;SDS011;37474;59.468;18.040;2024-03-08T09:11:39;6.60;;;2.93;;
50379;SDS011;37474;59.468;18.040;2024-03-08T09:14:08;11.50;;;3.40;;
50379;SDS011;37474;59.468;18.040;2024-03-08T09:16:39;5.72;;;2.90;;
50379;SDS011;37474;59.468;18.040;2024-03-08T09:19:07;7.63;;;2.97;;
50379;SDS011;37474;59.468;18.040;2024-03-08T09:24:07;5.73;;;2.50;;
50379;SDS011;37474;59.468;18.040;2024-03-08T09:26:35;5.27;;;2.70;;
50379;SDS011;37474;59.468;18.040;2024-03-08T09:29:03;9.33;;;2.90;;
50379;SDS011;37474;59.468;18.040;2024-03-08T09:31:33;8.25;;;2.88;;
50379;SDS011;37474;59.468;18.040;2024-03-08T09:34:01;5.97;;;2.90;;
50379;SDS011;37474;59.468;18.040;2024-03-08T09:36:32;6.90;;;3.10;;
50379;SDS011;37474;59.468;18.040;2024-03-08T09:39:02;7.63;;;3.10;;
50379;SDS011;37474;59.468;18.040;2024-03-08T09:41:33;7.67;;;3.20;;
50379;SDS011;37474;59.468;18.040;2024-03-08T09:44:01;6.43;;;3.13;;
50379;SDS011;37474;59.468;18.040;2024-03-08T09:46:33;5.07;;;2.63;;
50379;SDS011;37474;59.468;18.040;2024-03-08T09:49:01;6.53;;;2.90;;
50379;SDS011;37474;59.468;18.040;2024-03-08T09:51:34;7.28;;;2.75;;
50379;SDS011;37474;59.468;18.040;2024-03-08T09:54:04;10.43;;;3.33;;
50379;SDS011;37474;59.468;18.040;2024-03-08T09:56:42;7.38;;;2.80;;
50379;SDS011;37474;59.468;18.040;2024-03-08T09:59:12;7.53;;;2.67;;
50379;SDS011;37474;59.468;18.040;2024-03-08T10:01:57;5.03;;;2.70;;
50379;SDS011;37474;59.468;18.040;2024-03-08T10:04:26;5.53;;;2.30;;
50379;SDS011;37474;59.468;18.040;2024-03-08T10:09:53;3.47;;;2.20;;
50379;SDS011;37474;59.468;18.040;2024-03-08T10:12:21;3.35;;;2.10;;
50379;SDS011;37474;59.468;18.040;2024-03-08T10:14:49;4.40;;;2.07;;
50379;SDS011;37474;59.468;18.040;2024-03-08T10:17:17;5.70;;;2.37;;
50379;SDS011;37474;59.468;18.040;2024-03-08T10:19:50;6.78;;;2.20;;
50379;SDS011;37474;59.468;18.040;2024-03-08T10:22:23;8.60;;;2.47;;
50379;SDS011;37474;59.468;18.040;2024-03-08T10:24:54;3.85;;;1.88;;
50379;SDS011;37474;59.468;18.040;2024-03-08T10:27:22;9.20;;;1.98;;
50379;SDS011;37474;59.468;18.040;2024-03-08T10:29:52;4.78;;;2.22;;
50379;SDS011;37474;59.468;18.040;2024-03-08T10:32:21;5.37;;;2.10;;
50379;SDS011;37474;59.468;18.040;2024-03-08T10:34:50;3.57;;;1.83;;
50379;SDS011;37474;59.468;18.040;2024-03-08T10:37:21;4.37;;;2.00;;
50379;SDS011;37474;59.468;18.040;2024-03-08T10:39:54;6.07;;;1.90;;
50379;SDS011;37474;59.468;18.040;2024-03-08T10:42:39;9.17;;;2.20;;
50379;SDS011;37474;59.468;18.040;2024-03-08T10:45:10;5.00;;;2.00;;
50379;SDS011;37474;59.468;18.040;2024-03-08T10:47:49;11.93;;;2.13;;
50379;SDS011;37474;59.468;18.040;2024-03-08T10:50:17;4.03;;;2.00;;
50379;SDS011;37474;59.468;18.040;2024-03-08T10:52:48;7.43;;;2.20;;
50379;SDS011;37474;59.468;18.040;2024-03-08T10:55:19;5.30;;;2.20;;
50379;SDS011;37474;59.468;18.040;2024-03-08T10:57:47;5.18;;;1.90;;
50379;SDS011;37474;59.468;18.040;2024-03-08T11:00:15;5.57;;;2.47;;
50379;SDS011;37474;59.468;18.040;2024-03-08T11:02:53;8.10;;;1.90;;
50379;SDS011;37474;59.468;18.040;2024-03-08T11:05:31;5.57;;;2.20;;
50379;SDS011;37474;59.468;18.040;2024-03-08T11:08:15;4.10;;;2.13;;
50379;SDS011;37474;59.468;18.040;2024-03-08T11:10:47;4.47;;;1.77;;
50379;SDS011;37474;59.468;18.040;2024-03-08T11:13:34;5.60;;;2.37;;
50379;SDS011;37474;59.468;18.040;2024-03-08T11:16:03;3.73;;;2.17;;
50379;SDS011;37474;59.468;18.040;2024-03-08T11:18:36;6.13;;;2.43;;
50379;SDS011;37474;59.468;18.040;2024-03-08T11:21:06;4.07;;;2.20;;
50379;SDS011;37474;59.468;18.040;2024-03-08T11:23:39;5.73;;;2.30;;
50379;SDS011;37474;59.468;18.040;2024-03-08T11:26:18;5.77;;;2.13;;
50379;SDS011;37474;59.468;18.040;2024-03-08T11:28:46;4.73;;;2.00;;
50379;SDS011;37474;59.468;18.040;2024-03-08T11:31:24;6.60;;;2.37;;
50379;SDS011;37474;59.468;18.040;2024-03-08T11:36:24;4.90;;;2.50;;
50379;SDS011;37474;59.468;18.040;2024-03-08T11:38:52;3.53;;;1.87;;
50379;SDS011;37474;59.468;18.040;2024-03-08T11:41:25;4.27;;;2.00;;
50379;SDS011;37474;59.468;18.040;2024-03-08T11:44:01;3.20;;;2.10;;
50379;SDS011;37474;59.468;18.040;2024-03-08T11:46:33;5.50;;;2.00;;
50379;SDS011;37474;59.468;18.040;2024-03-08T11:49:01;9.70;;;2.03;;
50379;SDS011;37474;59.468;18.040;2024-03-08T11:51:32;3.97;;;1.60;;
50379;SDS011;37474;59.468;18.040;2024-03-08T11:54:00;2.87;;;1.63;;
50379;SDS011;37474;59.468;18.040;2024-03-08T11:56:30;5.17;;;1.80;;
50379;SDS011;37474;59.468;18.040;2024-03-08T11:59:00;3.47;;;1.90;;
50379;SDS011;37474;59.468;18.040;2024-03-08T12:01:28;3.80;;;1.53;;
50379;SDS011;37474;59.468;18.040;2024-03-08T12:03:57;4.00;;;1.57;;
50379;SDS011;37474;59.468;18.040;2024-03-08T12:06:26;5.07;;;1.80;;
50379;SDS011;37474;59.468;18.040;2024-03-08T12:09:03;7.23;;;1.83;;
50379;SDS011;37474;59.468;18.040;2024-03-08T12:11:32;5.70;;;1.90;;
50379;SDS011;37474;59.468;18.040;2024-03-08T12:14:01;3.35;;;1.70;;
50379;SDS011;37474;59.468;18.040;2024-03-08T12:16:30;4.20;;;1.50;;
50379;SDS011;37474;59.468;18.040;2024-03-08T12:18:59;3.43;;;1.77;;
50379;SDS011;37474;59.468;18.040;2024-03-08T12:21:31;6.93;;;1.80;;
50379;SDS011;37474;59.468;18.040;2024-03-08T12:24:05;4.03;;;1.67;;
50379;SDS011;37474;59.468;18.040;2024-03-08T12:26:37;10.43;;;1.80;;
50379;SDS011;37474;59.468;18.040;2024-03-08T12:29:19;5.53;;;1.80;;
50379;SDS011;37474;59.468;18.040;2024-03-08T12:31:50;3.33;;;1.40;;
50379;SDS011;37474;59.468;18.040;2024-03-08T12:34:20;5.50;;;1.73;;
50379;SDS011;37474;59.468;18.040;2024-03-08T12:36:49;3.50;;;1.67;;
50379;SDS011;37474;59.468;18.040;2024-03-08T12:39:21;2.73;;;1.70;;
50379;SDS011;37474;59.468;18.040;2024-03-08T12:41:55;4.67;;;2.43;;
50379;SDS011;37474;59.468;18.040;2024-03-08T12:44:26;1.70;;;1.50;;
50379;SDS011;37474;59.468;18.040;2024-03-08T12:46:55;2.47;;;1.60;;
50379;SDS011;37474;59.468;18.040;2024-03-08T12:49:26;7.37;;;1.73;;
50379;SDS011;37474;59.468;18.040;2024-03-08T12:51:54;2.90;;;1.60;;
50379;SDS011;37474;59.468;18.040;2024-03-08T12:54:22;5.30;;;1.50;;
50379;SDS011;37474;59.468;18.040;2024-03-08T12:56:51;4.70;;;1.60;;
50379;SDS011;37474;59.468;18.040;2024-03-08T12:59:22;3.20;;;1.63;;
50379;SDS011;37474;59.468;18.040;2024-03-08T13:01:51;3.50;;;1.60;;
50379;SDS011;37474;59.468;18.040;2024-03-08T13:04:20;5.10;;;1.80;;
50379;SDS011;37474;59.468;18.040;2024-03-08T13:06:49;6.33;;;1.43;;
50379;SDS011;37474;59.468;18.040;2024-03-08T13:09:21;4.27;;;1.70;;
50379;SDS011;37474;59.468;18.040;2024-03-08T13:11:50;5.82;;;1.70;;
50379;SDS011;37474;59.468;18.040;2024-03-08T13:14:20;3.10;;;1.80;;
50379;SDS011;37474;59.468;18.040;2024-03-08T13:16:51;3.75;;;1.70;;
50379;SDS011;37474;59.468;18.040;2024-03-08T13:19:21;2.57;;;1.57;;
50379;SDS011;37474;59.468;18.040;2024-03-08T13:21:49;3.87;;;1.63;;
50379;SDS011;37474;59.468;18.040;2024-03-08T13:24:17;5.43;;;1.70;;
50379;SDS011;37474;59.468;18.040;2024-03-08T13:26:46;5.77;;;2.20;;
50379;SDS011;37474;59.468;18.040;2024-03-08T13:29:15;3.45;;;1.63;;
50379;SDS011;37474;59.468;18.040;2024-03-08T13:31:45;7.00;;;1.90;;
50379;SDS011;37474;59.468;18.040;2024-03-08T13:34:17;5.67;;;2.20;;
50379;SDS011;37474;59.468;18.040;2024-03-08T13:36:45;5.35;;;2.13;;
50379;SDS011;37474;59.468;18.040;2024-03-08T13:39:13;3.10;;;1.47;;
50379;SDS011;37474;59.468;18.040;2024-03-08T13:41:46;5.67;;;1.83;;
50379;SDS011;37474;59.468;18.040;2024-03-08T13:44:14;4.83;;;1.90;;
50379;SDS011;37474;59.468;18.040;2024-03-08T13:46:43;3.00;;;1.63;;
50379;SDS011;37474;59.468;18.040;2024-03-08T13:49:20;8.17;;;1.50;;
50379;SDS011;37474;59.468;18.040;2024-03-08T13:51:48;4.40;;;1.60;;
50379;SDS011;37474;59.468;18.040;2024-03-08T13:54:21;4.63;;;1.87;;
50379;SDS011;37474;59.468;18.040;2024-03-08T13:56:49;7.27;;;1.70;;
50379;SDS011;37474;59.468;18.040;2024-03-08T13:59:20;3.23;;;1.63;;
50379;SDS011;37474;59.468;18.040;2024-03-08T14:01:49;3.23;;;1.60;;
50379;SDS011;37474;59.468;18.040;2024-03-08T14:04:17;4.27;;;1.90;;
50379;SDS011;37474;59.468;18.040;2024-03-08T14:06:46;8.00;;;1.87;;
50379;SDS011;37474;59.468;18.040;2024-03-08T14:09:15;4.07;;;1.73;;
50379;SDS011;37474;59.468;18.040;2024-03-08T14:11:46;3.80;;;1.53;;
50379;SDS011;37474;59.468;18.040;2024-03-08T14:14:14;2.05;;;1.42;;
50379;SDS011;37474;59.468;18.040;2024-03-08T14:16:42;3.43;;;2.00;;
50379;SDS011;37474;59.468;18.040;2024-03-08T14:19:10;5.90;;;2.07;;
50379;SDS011;37474;59.468;18.040;2024-03-08T14:21:38;3.13;;;1.70;;
50379;SDS011;37474;59.468;18.040;2024-03-08T14:24:10;4.67;;;2.00;;
50379;SDS011;37474;59.468;18.040;2024-03-08T14:26:38;3.42;;;1.70;;
50379;SDS011;37474;59.468;18.040;2024-03-08T14:29:09;5.47;;;1.70;;
50379;SDS011;37474;59.468;18.040;2024-03-08T14:31:37;7.97;;;2.17;;
50379;SDS011;37474;59.468;18.040;2024-03-08T14:34:06;14.03;;;2.13;;
50379;SDS011;37474;59.468;18.040;2024-03-08T14:36:35;5.73;;;2.07;;
50379;SDS011;37474;59.468;18.040;2024-03-08T14:39:03;8.90;;;2.20;;
50379;SDS011;37474;59.468;18.040;2024-03-08T14:41:32;4.10;;;2.40;;
50379;SDS011;37474;59.468;18.040;2024-03-08T14:44:00;4.13;;;2.00;;
50379;SDS011;37474;59.468;18.040;2024-03-08T14:46:31;5.82;;;2.33;;
50379;SDS011;37474;59.468;18.040;2024-03-08T14:48:59;2.83;;;1.90;;
50379;SDS011;37474;59.468;18.040;2024-03-08T14:51:27;5.40;;;2.10;;
50379;SDS011;37474;59.468;18.040;2024-03-08T14:53:55;9.20;;;2.30;;
50379;SDS011;37474;59.468;18.040;2024-03-08T14:56:23;4.30;;;2.60;;
50379;SDS011;37474;59.468;18.040;2024-03-08T15:01:26;5.83;;;2.57;;
50379;SDS011;37474;59.468;18.040;2024-03-08T15:03:56;3.35;;;2.20;;